Time;durP1;ratioP1;P1;durP2;ratioP2;P2;SDS_P1;SDS_P2;PMS_P1;PMS_P2;Temp;Humidity;BMP_temperature;BMP_pressure;BME280_temperature;BME280_humidity;BME280_pressure;Samples;Min_cycle;Max_cycle;Signal;HPM_P1;HPM_P2
2021/06/24 00:01:06;;;;;;;24.02;6.80;;;29.80;62.30;;;;;;4959441;28;20070;-69
2021/06/24 00:03:34;;;;;;;29.92;7.13;;;29.90;63.00;;;;;;4962811;28;20425;-68
2021/06/24 00:06:01;;;;;;;23.80;7.13;;;29.90;62.20;;;;;;4964236;28;20035;-68
2021/06/24 00:08:27;;;;;;;22.17;7.35;;;30.00;62.30;;;;;;4958941;28;20044;-72
2021/06/24 00:10:55;;;;;;;21.40;6.53;;;29.90;62.10;;;;;;4957108;28;20027;-68
2021/06/24 00:13:22;;;;;;;28.50;6.57;;;29.90;62.40;;;;;;4957148;28;20038;-69
2021/06/24 00:15:48;;;;;;;27.38;7.10;;;30.00;62.50;;;;;;4956831;28;20023;-68
2021/06/24 00:18:15;;;;;;;25.75;7.07;;;29.90;62.40;;;;;;4955468;29;20472;-69
2021/06/24 00:20:42;;;;;;;18.98;6.63;;;29.80;62.70;;;;;;4956906;28;20110;-69
2021/06/24 00:23:08;;;;;;;18.88;6.75;;;29.80;63.00;;;;;;4956954;28;20035;-68
2021/06/24 00:25:34;;;;;;;23.42;7.22;;;29.80;62.70;;;;;;4956857;28;20023;-70
2021/06/24 00:28:01;;;;;;;23.98;6.53;;;29.60;62.80;;;;;;4956872;28;20102;-71
2021/06/24 00:30:26;;;;;;;21.20;6.35;;;29.40;63.50;;;;;;4956787;28;20051;-68
2021/06/24 00:32:52;;;;;;;25.38;7.03;;;29.40;63.30;;;;;;4956841;28;20058;-70
2021/06/24 00:35:18;;;;;;;22.13;6.57;;;29.50;62.90;;;;;;4956609;28;20023;-71
2021/06/24 00:37:44;;;;;;;26.83;6.93;;;29.50;62.70;;;;;;4956540;28;20023;-70
2021/06/24 00:40:12;;;;;;;25.02;6.60;;;29.30;62.80;;;;;;4956832;28;20037;-68
2021/06/24 00:42:39;;;;;;;18.70;6.38;;;29.30;62.50;;;;;;4955244;28;20039;-70
2021/06/24 00:45:07;;;;;;;22.45;7.47;;;29.30;62.60;;;;;;4956641;28;20035;-69
2021/06/24 00:47:33;;;;;;;19.77;6.13;;;29.00;62.90;;;;;;4956423;28;20527;-68
2021/06/24 00:49:59;;;;;;;23.70;6.50;;;28.90;63.10;;;;;;4956521;28;20035;-71
2021/06/24 00:52:24;;;;;;;27.88;6.68;;;28.80;63.30;;;;;;4956488;28;20019;-69
2021/06/24 00:54:50;;;;;;;21.20;6.28;;;28.80;62.90;;;;;;4957721;28;20069;-72
2021/06/24 00:57:16;;;;;;;21.05;6.25;;;28.80;62.70;;;;;;4956421;28;20034;-71
2021/06/24 00:59:42;;;;;;;17.58;5.88;;;28.80;62.70;;;;;;4956250;28;20111;-69
2021/06/24 01:02:08;;;;;;;18.50;5.68;;;28.70;62.50;;;;;;4956127;28;20547;-68
2021/06/24 01:04:36;;;;;;;21.48;5.47;;;28.60;62.70;;;;;;4956001;28;20023;-72
2021/06/24 01:07:03;;;;;;;19.95;6.40;;;28.50;62.40;;;;;;4955851;28;20082;-70
2021/06/24 01:09:29;;;;;;;21.92;6.40;;;28.60;62.60;;;;;;4956306;28;20020;-72
2021/06/24 01:11:55;;;;;;;17.77;6.25;;;28.50;62.40;;;;;;4956373;28;20023;-70
2021/06/24 01:14:22;;;;;;;22.10;5.70;;;28.30;62.70;;;;;;4956273;28;20041;-70
2021/06/24 01:16:51;;;;;;;14.95;5.40;;;28.40;63.00;;;;;;4955862;28;20038;-71
2021/06/24 01:19:20;;;;;;;24.38;5.63;;;28.60;62.50;;;;;;4955768;28;20042;-69
2021/06/24 01:21:46;;;;;;;15.80;5.53;;;28.60;62.10;;;;;;4956086;28;20105;-71
2021/06/24 01:24:13;;;;;;;26.95;6.50;;;28.70;62.00;;;;;;4955859;28;20477;-73
2021/06/24 01:26:41;;;;;;;16.75;5.30;;;28.70;61.60;;;;;;4955304;28;20046;-74
2021/06/24 01:29:07;;;;;;;19.63;5.25;;;28.40;62.10;;;;;;4954057;28;20023;-69
2021/06/24 01:31:33;;;;;;;18.65;6.05;;;28.40;62.20;;;;;;4955498;28;20053;-72
2021/06/24 01:33:58;;;;;;;21.58;6.45;;;28.40;62.30;;;;;;4955673;28;20206;-71
2021/06/24 01:36:24;;;;;;;19.77;5.68;;;28.60;62.00;;;;;;4955868;28;20025;-72
2021/06/24 01:38:50;;;;;;;23.85;6.10;;;28.50;62.00;;;;;;4956271;28;20038;-70
2021/06/24 01:41:16;;;;;;;19.15;5.47;;;28.50;62.00;;;;;;4957705;28;20055;-70
2021/06/24 01:43:43;;;;;;;22.02;6.60;;;28.40;62.10;;;;;;4955712;28;20031;-70
2021/06/24 01:46:09;;;;;;;23.27;6.57;;;28.50;62.10;;;;;;4955667;28;20543;-69
2021/06/24 01:48:35;;;;;;;25.95;6.93;;;28.50;62.30;;;;;;4955452;28;20106;-69
2021/06/24 01:51:02;;;;;;;21.85;5.75;;;28.60;62.10;;;;;;4955427;28;20027;-70
2021/06/24 01:53:28;;;;;;;17.83;6.00;;;28.60;61.80;;;;;;4955518;28;20031;-71
2021/06/24 01:55:55;;;;;;;21.63;5.72;;;28.60;61.90;;;;;;4955404;28;20019;-73
2021/06/24 01:58:23;;;;;;;22.92;7.10;;;28.80;61.60;;;;;;4955520;28;20034;-70
2021/06/24 02:00:51;;;;;;;20.45;7.30;;;28.80;61.40;;;;;;4955495;28;20472;-71
2021/06/24 02:03:18;;;;;;;26.38;6.53;;;28.80;61.20;;;;;;4955413;28;20377;-69
2021/06/24 02:05:48;;;;;;;27.52;6.57;;;28.60;61.50;;;;;;4955099;28;20035;-72
2021/06/24 02:08:16;;;;;;;26.13;6.93;;;28.70;61.60;;;;;;4954720;28;20477;-69
2021/06/24 02:10:43;;;;;;;28.63;6.97;;;28.70;61.70;;;;;;4955123;28;20393;-71
2021/06/24 02:13:09;;;;;;;30.80;7.03;;;28.60;62.00;;;;;;4955140;28;20094;-69
2021/06/24 02:15:35;;;;;;;23.38;7.38;;;28.70;61.50;;;;;;4955260;28;20385;-70
2021/06/24 02:18:01;;;;;;;23.38;6.45;;;28.60;61.60;;;;;;4955161;28;20028;-70
2021/06/24 02:20:27;;;;;;;23.98;7.05;;;28.50;62.00;;;;;;4954988;28;20023;-72
2021/06/24 02:22:53;;;;;;;23.65;7.38;;;28.30;62.50;;;;;;4955020;28;20032;-70
2021/06/24 02:25:19;;;;;;;32.03;7.45;;;28.40;62.90;;;;;;4954987;28;20126;-69
2021/06/24 02:27:44;;;;;;;21.83;6.57;;;28.40;62.10;;;;;;4954877;28;20385;-69
2021/06/24 02:30:12;;;;;;;18.27;6.68;;;28.50;62.00;;;;;;4955266;28;20023;-71
2021/06/24 02:32:39;;;;;;;21.48;7.40;;;28.50;62.30;;;;;;4954801;28;20098;-69
2021/06/24 02:35:06;;;;;;;23.33;7.03;;;28.50;61.90;;;;;;4954862;28;20019;-69
2021/06/24 02:37:32;;;;;;;26.77;6.90;;;28.60;62.30;;;;;;4955162;28;20031;-71
2021/06/24 02:39:58;;;;;;;26.88;6.97;;;28.40;62.20;;;;;;4954522;28;20503;-70
2021/06/24 02:42:24;;;;;;;21.15;6.50;;;28.40;62.30;;;;;;4957852;29;20028;-71
2021/06/24 02:44:50;;;;;;;27.75;7.90;;;28.30;62.50;;;;;;4958555;28;20095;-68
2021/06/24 02:47:16;;;;;;;26.95;7.88;;;28.20;62.60;;;;;;4957315;28;20031;-73
2021/06/24 02:49:41;;;;;;;25.95;6.93;;;28.10;63.00;;;;;;4958770;28;20504;-69
2021/06/24 02:52:07;;;;;;;29.33;6.93;;;28.10;63.10;;;;;;4958880;28;20062;-72
2021/06/24 02:54:33;;;;;;;27.00;7.13;;;28.10;63.00;;;;;;4959613;28;20038;-74
2021/06/24 02:57:00;;;;;;;27.00;7.78;;;28.30;62.70;;;;;;4958979;28;20019;-70
2021/06/24 02:59:27;;;;;;;19.92;6.53;;;28.40;62.50;;;;;;4957428;29;20035;-69
2021/06/24 03:01:53;;;;;;;30.90;7.80;;;28.40;62.40;;;;;;4958423;28;20151;-70
2021/06/24 03:04:22;;;;;;;23.13;6.68;;;28.50;62.40;;;;;;4958406;28;20074;-69
2021/06/24 03:06:51;;;;;;;28.10;8.52;;;28.50;61.90;;;;;;4957942;28;20046;-69
2021/06/24 03:09:18;;;;;;;22.48;6.47;;;28.50;61.90;;;;;;4958481;28;20485;-70
2021/06/24 03:11:44;;;;;;;20.65;6.25;;;28.40;62.20;;;;;;4958339;28;20031;-69
2021/06/24 03:14:10;;;;;;;29.50;7.22;;;28.60;62.00;;;;;;4958432;28;20026;-68
2021/06/24 03:16:36;;;;;;;34.25;8.13;;;28.50;62.10;;;;;;4958339;28;20106;-71
2021/06/24 03:19:02;;;;;;;24.13;6.82;;;28.70;61.80;;;;;;4958267;28;20082;-70
2021/06/24 03:21:28;;;;;;;28.88;6.65;;;28.80;61.60;;;;;;4958156;28;20446;-69
2021/06/24 03:23:54;;;;;;;27.20;6.68;;;28.90;61.40;;;;;;4958307;28;20110;-69
2021/06/24 03:33:35;;;;;;;26.40;6.57;;;29.00;61.50;;;;;;4958287;29;20129;-69
2021/06/24 03:36:01;;;;;;;21.75;6.65;;;29.00;61.40;;;;;;4957580;29;20030;-70
2021/06/24 03:38:27;;;;;;;22.75;6.03;;;28.90;61.30;;;;;;4957928;28;20412;-69
2021/06/24 03:40:53;;;;;;;22.70;6.10;;;28.90;61.30;;;;;;4958014;28;20111;-70
2021/06/24 03:43:19;;;;;;;21.17;6.53;;;28.90;61.20;;;;;;4957858;28;20031;-69
2021/06/24 03:45:46;;;;;;;22.42;6.25;;;28.90;61.00;;;;;;4957657;28;20031;-68
2021/06/24 03:48:12;;;;;;;23.73;6.57;;;29.00;61.00;;;;;;4957699;29;20503;-68
2021/06/24 03:50:38;;;;;;;20.63;7.10;;;29.00;60.70;;;;;;4955993;28;20023;-71
2021/06/24 03:53:04;;;;;;;26.27;6.68;;;29.10;60.70;;;;;;4958016;28;20027;-72
2021/06/24 03:55:43;;;;;;;24.58;6.82;;;29.10;60.40;;;;;;4957679;28;20027;-69
2021/06/24 03:58:11;;;;;;;19.92;6.38;;;29.00;60.90;;;;;;4957648;28;20035;-69
2021/06/24 04:00:40;;;;;;;26.35;6.45;;;29.00;60.80;;;;;;4957685;28;20039;-68
2021/06/24 04:03:06;;;;;;;25.75;7.05;;;28.90;60.80;;;;;;4957673;28;20035;-70
2021/06/24 04:05:32;;;;;;;24.63;6.20;;;29.00;60.50;;;;;;4957804;28;20436;-71
2021/06/24 04:08:02;;;;;;;22.67;6.88;;;28.90;60.40;;;;;;4957378;28;20073;-69
2021/06/24 04:10:29;;;;;;;25.05;6.85;;;29.00;60.80;;;;;;4956290;29;20555;-69
2021/06/24 04:12:56;;;;;;;17.58;6.15;;;29.00;60.60;;;;;;4957616;28;20028;-68
2021/06/24 04:15:23;;;;;;;22.60;6.90;;;29.00;61.20;;;;;;4957321;28;20039;-68
2021/06/24 04:17:49;;;;;;;28.50;7.07;;;28.90;60.50;;;;;;4957030;28;20019;-69
2021/06/24 04:20:15;;;;;;;23.50;6.80;;;29.00;60.60;;;;;;4957247;28;20035;-70
2021/06/24 04:22:40;;;;;;;22.52;7.18;;;29.00;60.50;;;;;;4957041;28;20030;-68
2021/06/24 04:25:08;;;;;;;22.83;7.00;;;29.00;60.60;;;;;;4957289;28;20035;-70
2021/06/24 04:27:34;;;;;;;28.95;6.93;;;29.00;60.80;;;;;;4957170;28;20038;-74
2021/06/24 04:29:59;;;;;;;19.38;6.60;;;29.00;60.70;;;;;;4957140;28;20028;-71
2021/06/24 04:32:25;;;;;;;20.23;6.95;;;29.00;60.80;;;;;;4955662;29;20020;-70
2021/06/24 04:34:51;;;;;;;21.30;6.95;;;29.00;61.00;;;;;;4956848;28;20031;-72
2021/06/24 04:37:17;;;;;;;23.33;7.60;;;29.00;60.80;;;;;;4957087;28;20054;-72
2021/06/24 04:39:42;;;;;;;27.42;7.45;;;29.00;60.90;;;;;;4955624;29;20050;-73
2021/06/24 04:42:08;;;;;;;21.55;7.72;;;29.00;60.80;;;;;;4955528;28;20031;-73
2021/06/24 04:44:35;;;;;;;23.73;6.72;;;29.10;60.80;;;;;;4956705;28;20158;-73
2021/06/24 04:47:02;;;;;;;21.27;6.78;;;29.10;60.60;;;;;;4956478;28;20535;-73
2021/06/24 04:49:27;;;;;;;26.63;7.72;;;29.20;60.60;;;;;;4956569;28;20099;-74
2021/06/24 04:51:53;;;;;;;18.83;7.30;;;29.20;60.70;;;;;;4955681;28;20051;-73
2021/06/24 04:54:19;;;;;;;27.30;7.30;;;29.10;60.60;;;;;;4957219;28;20035;-75
2021/06/24 04:56:44;;;;;;;31.92;7.78;;;29.00;61.00;;;;;;4956830;28;20021;-74
2021/06/24 04:59:10;;;;;;;23.90;6.70;;;29.00;61.30;;;;;;4956581;28;20099;-73
2021/06/24 05:01:36;;;;;;;27.30;7.35;;;29.00;61.30;;;;;;4956513;28;20027;-74
2021/06/24 05:04:01;;;;;;;24.92;7.22;;;29.00;61.50;;;;;;4955914;28;20031;-74
2021/06/24 05:06:27;;;;;;;28.65;7.45;;;29.00;61.70;;;;;;4956023;28;20042;-71
2021/06/24 05:08:53;;;;;;;25.92;7.38;;;29.10;61.30;;;;;;4956329;28;20036;-74
2021/06/24 05:11:19;;;;;;;32.97;8.70;;;29.10;60.80;;;;;;4956239;28;20031;-73
2021/06/24 05:13:45;;;;;;;23.75;8.15;;;29.20;60.80;;;;;;4956077;28;20484;-72
2021/06/24 05:16:11;;;;;;;23.35;9.00;;;29.30;60.70;;;;;;4955947;28;20030;-73
2021/06/24 05:18:37;;;;;;;25.58;7.88;;;29.40;60.40;;;;;;4955996;28;20474;-75
2021/06/24 05:21:03;;;;;;;30.90;8.68;;;29.20;60.40;;;;;;4955899;28;20158;-73
2021/06/24 05:23:29;;;;;;;20.80;7.30;;;29.20;60.80;;;;;;4955724;28;20031;-72
2021/06/24 05:25:55;;;;;;;25.17;7.10;;;29.10;61.10;;;;;;4955693;28;20039;-75
2021/06/24 05:28:22;;;;;;;26.67;7.88;;;29.00;61.50;;;;;;4955777;28;20028;-74
2021/06/24 05:30:49;;;;;;;32.33;8.90;;;29.10;61.80;;;;;;4955634;28;20043;-75
2021/06/24 05:33:15;;;;;;;30.52;7.75;;;29.20;61.20;;;;;;4959989;28;20023;-72
2021/06/24 05:35:42;;;;;;;23.15;7.68;;;29.10;61.10;;;;;;4960305;28;20027;-73
2021/06/24 05:38:11;;;;;;;24.55;6.78;;;29.30;61.10;;;;;;4955549;28;20360;-74
2021/06/24 05:40:38;;;;;;;28.15;7.13;;;29.50;60.50;;;;;;4955970;28;20019;-75
2021/06/24 05:43:04;;;;;;;25.83;6.65;;;29.80;59.60;;;;;;4962735;28;20023;-74
2021/06/24 05:45:30;;;;;;;18.20;6.53;;;30.00;59.40;;;;;;4962857;28;20034;-70
2021/06/24 05:47:56;;;;;;;29.63;7.15;;;30.00;59.30;;;;;;4955560;28;20397;-68
2021/06/24 05:50:26;;;;;;;22.55;6.80;;;30.10;59.30;;;;;;4955553;28;20027;-71
2021/06/24 05:52:56;;;;;;;25.45;7.25;;;30.30;59.20;;;;;;4955042;28;20045;-71
2021/06/24 05:58:12;;;;;;;25.67;8.02;;;30.60;58.30;;;;;;4962908;28;20446;-70
2021/06/24 06:00:38;;;;;;;25.15;7.15;;;30.80;58.40;;;;;;4971467;28;20038;-69
2021/06/24 06:03:04;;;;;;;30.40;7.60;;;31.10;57.20;;;;;;4973935;28;20023;-70
2021/06/24 06:05:32;;;;;;;24.00;7.15;;;31.40;56.60;;;;;;4966116;28;20105;-73
2021/06/24 06:07:59;;;;;;;24.58;7.38;;;31.50;56.20;;;;;;4954737;28;20183;-70
2021/06/24 06:10:24;;;;;;;21.20;6.93;;;31.80;56.10;;;;;;4954538;28;20023;-68
2021/06/24 06:12:50;;;;;;;29.75;8.35;;;32.00;55.60;;;;;;4955056;28;20027;-70
2021/06/24 06:15:16;;;;;;;29.98;8.70;;;32.20;55.70;;;;;;4953706;28;20465;-71
2021/06/24 06:17:42;;;;;;;33.25;7.85;;;32.10;55.40;;;;;;4954727;28;20023;-69
2021/06/24 06:20:08;;;;;;;28.27;8.13;;;32.10;55.70;;;;;;4954355;28;20031;-68
2021/06/24 06:22:34;;;;;;;34.45;8.48;;;32.20;54.70;;;;;;4960387;28;20106;-71
2021/06/24 06:25:00;;;;;;;28.38;7.75;;;32.40;54.40;;;;;;4954272;28;20453;-69
2021/06/24 06:27:26;;;;;;;32.00;8.43;;;32.60;53.80;;;;;;4954441;28;20475;-70
2021/06/24 06:29:52;;;;;;;30.63;7.95;;;32.80;53.50;;;;;;4964616;28;20027;-71
2021/06/24 06:32:17;;;;;;;35.30;8.05;;;32.80;53.20;;;;;;4973660;28;20033;-71
2021/06/24 06:34:43;;;;;;;35.65;8.95;;;32.70;53.10;;;;;;4973742;28;20081;-71
2021/06/24 06:37:09;;;;;;;35.08;8.30;;;32.60;53.20;;;;;;4973722;28;20554;-70
2021/06/24 06:39:35;;;;;;;43.65;8.95;;;32.40;53.30;;;;;;4970759;28;20030;-70
2021/06/24 06:42:01;;;;;;;30.00;8.52;;;32.20;53.40;;;;;;4963018;28;20503;-72
2021/06/24 06:44:27;;;;;;;40.25;8.65;;;32.10;53.60;;;;;;4954409;28;20054;-72
2021/06/24 06:46:53;;;;;;;38.67;8.90;;;32.00;53.40;;;;;;4954144;28;20499;-71
2021/06/24 06:49:19;;;;;;;37.17;8.43;;;32.10;53.60;;;;;;4954651;28;20028;-72
2021/06/24 06:51:45;;;;;;;31.77;8.07;;;32.20;53.30;;;;;;4954158;28;20042;-72
2021/06/24 06:54:11;;;;;;;34.65;8.55;;;32.20;53.30;;;;;;4954759;28;20031;-72
2021/06/24 06:56:37;;;;;;;37.10;8.75;;;32.20;53.40;;;;;;4955424;28;20046;-72
2021/06/24 06:59:06;;;;;;;40.60;8.20;;;32.10;53.50;;;;;;4954364;28;20402;-72
2021/06/24 07:01:32;;;;;;;39.30;8.98;;;32.10;53.40;;;;;;4953038;29;20023;-72
2021/06/24 07:03:58;;;;;;;39.28;7.75;;;32.20;53.30;;;;;;4954445;28;20031;-72
2021/06/24 07:06:25;;;;;;;30.50;8.25;;;32.20;53.20;;;;;;4954509;28;20456;-74
2021/06/24 07:08:51;;;;;;;41.35;8.20;;;32.20;53.10;;;;;;4973354;28;20042;-74
2021/06/24 07:11:17;;;;;;;38.05;7.30;;;32.20;52.80;;;;;;4958800;28;20393;-71
2021/06/24 07:13:43;;;;;;;39.70;8.50;;;32.20;52.60;;;;;;4953763;28;20038;-73
2021/06/24 07:16:09;;;;;;;35.97;7.57;;;32.30;52.20;;;;;;4953634;28;20107;-73
2021/06/24 07:18:35;;;;;;;43.15;8.02;;;32.60;51.80;;;;;;4954237;28;20020;-74
2021/06/24 07:21:00;;;;;;;37.28;7.70;;;32.90;51.30;;;;;;4954017;28;20034;-72
2021/06/24 07:23:26;;;;;;;38.53;8.05;;;32.90;51.00;;;;;;4953805;28;20098;-74
2021/06/24 07:25:52;;;;;;;43.70;8.40;;;33.00;51.40;;;;;;4954483;28;20063;-74
2021/06/24 07:28:18;;;;;;;40.65;9.15;;;33.10;50.90;;;;;;4957664;28;20441;-76
2021/06/24 07:30:43;;;;;;;33.65;7.20;;;33.20;50.80;;;;;;4957525;28;20110;-74
2021/06/24 07:33:09;;;;;;;41.63;8.18;;;33.20;51.00;;;;;;4957645;28;20480;-74
2021/06/24 07:35:35;;;;;;;49.95;8.98;;;33.20;51.30;;;;;;4956224;29;20601;-74
2021/06/24 07:38:01;;;;;;;37.65;8.32;;;33.30;51.30;;;;;;4957588;28;20053;-74
2021/06/24 07:40:27;;;;;;;37.92;8.48;;;33.40;51.00;;;;;;4957560;28;20091;-71
2021/06/24 07:42:53;;;;;;;41.72;7.93;;;33.50;51.20;;;;;;4958660;28;20101;-72
2021/06/24 07:45:19;;;;;;;39.35;7.63;;;33.40;51.50;;;;;;4960772;28;20031;-70
2021/06/24 07:47:45;;;;;;;50.38;8.40;;;33.20;51.90;;;;;;4957734;28;20516;-72
2021/06/24 07:50:11;;;;;;;37.90;7.88;;;33.00;52.10;;;;;;4957907;28;20034;-72
2021/06/24 07:52:37;;;;;;;40.45;8.10;;;32.90;52.20;;;;;;4956007;29;20499;-72
2021/06/24 07:55:07;;;;;;;45.67;9.00;;;33.00;52.20;;;;;;4957442;28;20031;-71
2021/06/24 07:57:32;;;;;;;38.28;8.70;;;33.10;52.00;;;;;;4957143;28;20038;-73
2021/06/24 07:59:58;;;;;;;40.50;8.27;;;33.20;52.20;;;;;;4957346;28;20035;-72
2021/06/24 08:02:24;;;;;;;41.75;8.88;;;33.20;51.60;;;;;;4957128;28;20106;-71
2021/06/24 08:04:50;;;;;;;33.58;8.00;;;33.20;52.20;;;;;;4957231;28;20420;-71
2021/06/24 08:07:15;;;;;;;33.13;7.53;;;33.10;52.20;;;;;;4956884;28;20046;-70
2021/06/24 08:09:41;;;;;;;47.00;8.90;;;32.90;51.80;;;;;;4957441;28;20078;-73
2021/06/24 08:12:08;;;;;;;34.08;7.75;;;32.70;52.00;;;;;;4957393;28;20329;-72
2021/06/24 08:14:34;;;;;;;39.58;7.28;;;32.60;52.00;;;;;;4957897;28;20024;-76
2021/06/24 08:17:03;;;;;;;40.90;8.27;;;32.60;52.30;;;;;;4955815;29;20078;-73
2021/06/24 08:19:29;;;;;;;33.50;8.02;;;32.70;52.30;;;;;;4956181;29;20031;-72
2021/06/24 08:21:58;;;;;;;39.92;8.05;;;32.90;52.20;;;;;;4956941;28;20361;-70
2021/06/24 08:24:25;;;;;;;38.83;7.28;;;33.00;52.10;;;;;;4957093;28;20026;-71
2021/06/24 08:26:51;;;;;;;33.72;7.72;;;32.90;52.00;;;;;;4956721;28;20183;-69
2021/06/24 08:29:17;;;;;;;37.17;7.97;;;32.80;52.00;;;;;;4956652;28;20520;-73
2021/06/24 08:31:43;;;;;;;44.35;9.15;;;32.90;51.80;;;;;;4956746;28;20041;-72
2021/06/24 08:34:09;;;;;;;47.58;8.50;;;33.00;51.40;;;;;;4956915;28;20027;-74
2021/06/24 08:36:35;;;;;;;53.67;8.77;;;33.20;51.10;;;;;;4956307;28;20027;-70
2021/06/24 08:39:01;;;;;;;39.33;8.13;;;33.20;51.20;;;;;;4955569;28;20021;-69
2021/06/24 08:41:27;;;;;;;36.80;7.88;;;33.20;49.40;;;;;;4955379;28;20031;-71
2021/06/24 08:43:57;;;;;;;44.55;7.78;;;33.20;49.40;;;;;;4956837;28;20035;-72
2021/06/24 08:46:26;;;;;;;40.33;7.03;;;33.20;49.40;;;;;;4955631;29;20039;-71
2021/06/24 08:48:53;;;;;;;48.40;7.70;;;33.20;49.50;;;;;;4956355;28;20024;-70
2021/06/24 08:51:19;;;;;;;45.42;8.70;;;33.10;49.00;;;;;;4956634;28;20377;-75
2021/06/24 08:53:48;;;;;;;46.42;9.07;;;33.20;48.60;;;;;;4958261;28;20421;-78
2021/06/24 08:56:15;;;;;;;43.70;8.70;;;33.20;48.80;;;;;;4956625;28;20052;-71
2021/06/24 08:58:41;;;;;;;41.72;8.65;;;33.30;48.40;;;;;;4956681;28;20412;-71
2021/06/24 09:01:07;;;;;;;47.28;8.40;;;33.30;48.70;;;;;;4955787;28;20035;-74
2021/06/24 09:03:33;;;;;;;43.63;9.23;;;33.20;48.70;;;;;;4956875;28;20365;-72
2021/06/24 09:06:00;;;;;;;53.28;9.40;;;33.10;49.50;;;;;;4956323;28;20042;-73
2021/06/24 09:08:55;;;;;;;39.45;8.88;;;33.10;49.00;;;;;;4956417;28;20051;-70
2021/06/24 09:11:23;;;;;;;54.33;7.90;;;33.30;48.90;;;;;;4967104;28;20039;-71
2021/06/24 09:14:06;;;;;;;36.28;7.95;;;33.30;49.00;;;;;;4956109;28;20101;-71
2021/06/24 09:16:36;;;;;;;;;;;33.20;49.20;;;;;;4956230;28;20027;-71
2021/06/24 09:19:14;;;;;;;51.97;9.02;;;33.20;48.70;;;;;;4955761;28;19913;-71
2021/06/24 09:21:40;;;;;;;44.25;8.88;;;33.20;48.90;;;;;;4955691;28;20031;-71
2021/06/24 09:24:26;;;;;;;45.05;7.50;;;33.30;49.10;;;;;;4955486;28;20027;-70
2021/06/24 09:26:52;;;;;;;42.88;8.05;;;33.40;48.80;;;;;;4955230;28;20035;-70
2021/06/24 09:29:18;;;;;;;38.70;7.93;;;33.50;48.50;;;;;;4955202;28;20023;-73
2021/06/24 09:31:49;;;;;;;39.40;7.88;;;33.60;48.30;;;;;;4954130;29;20492;-73
2021/06/24 09:34:17;;;;;;;44.25;8.63;;;33.60;48.20;;;;;;4955650;28;20425;-70
2021/06/24 09:36:46;;;;;;;44.40;8.82;;;33.60;48.20;;;;;;4955572;28;20036;-71
2021/06/24 09:39:29;;;;;;;42.88;7.30;;;33.70;48.10;;;;;;4955213;28;20023;-71
2021/06/24 09:42:00;;;;;;;39.47;7.63;;;33.70;48.10;;;;;;4955159;28;20016;-70
2021/06/24 09:44:27;;;;;;;40.25;6.97;;;33.60;48.50;;;;;;4955681;28;20027;-73
2021/06/24 09:46:53;;;;;;;35.03;8.20;;;33.60;49.00;;;;;;4955736;28;20497;-74
2021/06/24 09:49:31;;;;;;;131.70;17.85;;;33.60;49.20;;;;;;4955124;28;20110;-72
2021/06/24 09:51:58;;;;;;;57.85;10.57;;;33.70;49.30;;;;;;4955059;28;20046;-72
2021/06/24 09:54:36;;;;;;;42.20;9.45;;;33.70;49.80;;;;;;4955020;28;20075;-73
2021/06/24 09:57:03;;;;;;;50.40;8.13;;;33.60;49.50;;;;;;4954743;28;20117;-74
2021/06/24 09:59:33;;;;;;;49.17;9.00;;;33.60;50.20;;;;;;4955345;28;20487;-74
2021/06/24 10:02:06;;;;;;;41.28;8.50;;;33.60;50.70;;;;;;4954859;28;20035;-73
2021/06/24 10:04:32;;;;;;;;;;;33.50;51.00;;;;;;4955650;28;20070;-77
2021/06/24 10:07:04;;;;;;;48.03;8.95;;;33.50;50.90;;;;;;4954860;28;20327;-76
2021/06/24 10:09:31;;;;;;;37.25;8.40;;;33.50;51.10;;;;;;4955232;28;20039;-75
2021/06/24 10:11:58;;;;;;;43.63;9.27;;;33.50;51.50;;;;;;4955107;28;20434;-78
2021/06/24 10:14:24;;;;;;;32.53;8.45;;;33.40;51.70;;;;;;4954751;28;20051;-71
2021/06/24 10:16:52;;;;;;;38.90;8.50;;;33.20;52.00;;;;;;4954621;28;20077;-71
2021/06/24 10:19:29;;;;;;;43.85;8.32;;;33.00;52.20;;;;;;4955227;28;20039;-71
2021/06/24 10:22:03;;;;;;;40.90;8.95;;;33.00;51.50;;;;;;4954904;28;20050;-71
2021/06/24 10:24:40;;;;;;;43.15;8.65;;;33.00;51.60;;;;;;4953043;28;20047;-74
2021/06/24 10:27:08;;;;;;;35.47;8.20;;;32.80;51.90;;;;;;4954460;28;20058;-70
2021/06/24 10:30:11;;;;;;;42.25;11.23;;;32.70;52.80;;;;;;4954272;28;20059;-71
2021/06/24 10:32:42;;;;;;;45.20;11.23;;;32.60;52.50;;;;;;4949816;29;20035;-76
2021/06/24 10:35:31;;;;;;;102.97;13.65;;;32.60;53.50;;;;;;4955755;28;20031;-73
2021/06/24 10:37:58;;;;;;;67.88;13.35;;;32.50;52.90;;;;;;4954646;28;20106;-71
2021/06/24 10:40:44;;;;;;;187.43;20.75;;;32.50;54.00;;;;;;4954739;28;20032;-69
2021/06/24 10:43:14;;;;;;;160.57;18.25;;;32.30;54.20;;;;;;4954802;28;20042;-74
2021/06/24 10:45:42;;;;;;;45.85;8.23;;;32.30;54.80;;;;;;4954716;28;20095;-75
2021/06/24 10:48:28;;;;;;;35.88;7.50;;;32.30;55.00;;;;;;4954848;28;20093;-72
2021/06/24 10:50:58;;;;;;;35.47;8.07;;;32.40;55.30;;;;;;4954810;28;20019;-72
2021/06/24 10:53:23;;;;;;;32.83;7.93;;;32.50;55.20;;;;;;4954809;28;20118;-70
2021/06/24 10:55:50;;;;;;;35.10;7.70;;;32.50;55.00;;;;;;4954854;28;20110;-74
2021/06/24 10:58:19;;;;;;;68.15;10.07;;;32.60;54.60;;;;;;4955055;28;20443;-73
2021/06/24 11:00:49;;;;;;;43.70;9.07;;;32.60;54.60;;;;;;4955108;28;20027;-73
2021/06/24 11:03:31;;;;;;;42.38;7.30;;;32.50;54.60;;;;;;4958934;28;20023;-74
2021/06/24 11:06:19;;;;;;;71.15;9.80;;;32.40;53.60;;;;;;4959487;28;20043;-73
2021/06/24 11:08:45;;;;;;;35.15;7.50;;;32.40;54.30;;;;;;4960937;28;20508;-72
2021/06/24 11:11:12;;;;;;;28.60;6.85;;;32.50;54.30;;;;;;4959090;28;20024;-75
2021/06/24 11:13:41;;;;;;;36.08;7.35;;;32.60;54.30;;;;;;4956995;28;20135;-76
2021/06/24 11:16:17;;;;;;;32.25;6.78;;;32.60;54.00;;;;;;4958225;28;20034;-76
2021/06/24 11:19:08;;;;;;;27.15;6.25;;;32.70;53.20;;;;;;4957304;28;20496;-76
2021/06/24 11:21:34;;;;;;;37.85;7.82;;;32.80;52.90;;;;;;4958886;28;20357;-76
2021/06/24 11:24:06;;;;;;;41.95;7.90;;;32.70;54.10;;;;;;4958307;28;20042;-74
2021/06/24 11:26:34;;;;;;;35.83;7.82;;;32.70;53.00;;;;;;4958391;28;20066;-75
2021/06/24 11:29:16;;;;;;;33.20;7.20;;;32.80;53.80;;;;;;4958117;28;20170;-73
2021/06/24 11:32:04;;;;;;;34.13;6.25;;;32.90;53.40;;;;;;4961230;28;20039;-73
2021/06/24 11:37:17;;;;;;;103.45;13.90;;;32.70;53.30;;;;;;4958640;28;20523;-74
2021/06/24 11:39:51;;;;;;;32.72;7.10;;;32.70;54.60;;;;;;4957685;28;20047;-72
2021/06/24 11:42:20;;;;;;;43.45;8.07;;;32.80;53.30;;;;;;4957859;28;20026;-73
2021/06/24 11:44:51;;;;;;;26.55;6.80;;;32.90;54.20;;;;;;4957678;28;20027;-75
2021/06/24 11:47:29;;;;;;;30.55;7.10;;;32.80;54.30;;;;;;4957638;28;20108;-75
2021/06/24 12:04:13;;;;;;;34.35;7.10;;;33.20;53.80;;;;;;4956586;29;20041;-74
2021/06/24 12:06:48;;;;;;;35.28;6.65;;;33.20;52.90;;;;;;4958033;28;20051;-74
2021/06/24 12:09:21;;;;;;;31.17;6.63;;;33.20;52.60;;;;;;4957805;28;20046;-76
2021/06/24 12:11:54;;;;;;;28.38;6.32;;;33.40;53.30;;;;;;4957952;28;20034;-74
2021/06/24 12:14:23;;;;;;;31.20;6.05;;;33.40;52.60;;;;;;4956554;29;20035;-73
2021/06/24 12:17:14;;;;;;;26.73;6.57;;;33.30;53.50;;;;;;4958841;28;20069;-74
2021/06/24 12:19:41;;;;;;;30.10;6.60;;;33.40;52.30;;;;;;4957621;28;20125;-71
2021/06/24 12:22:07;;;;;;;25.67;6.32;;;33.40;53.10;;;;;;4957526;28;20102;-73
2021/06/24 12:24:33;;;;;;;28.20;6.18;;;33.40;52.90;;;;;;4955750;28;20440;-77
2021/06/24 12:27:32;;;;;;;30.38;6.30;;;33.50;52.90;;;;;;4956926;28;20043;-74
2021/06/24 12:30:00;;;;;;;27.75;6.05;;;33.50;52.20;;;;;;4957192;28;20567;-73
2021/06/24 12:32:27;;;;;;;27.65;6.43;;;33.60;53.00;;;;;;4956808;28;20082;-74
2021/06/24 12:34:55;;;;;;;28.60;7.07;;;33.60;52.70;;;;;;4957493;28;20038;-77
2021/06/24 12:37:31;;;;;;;35.20;7.30;;;33.80;52.70;;;;;;4955459;28;20543;-70
2021/06/24 12:39:58;;;;;;;32.35;6.97;;;33.90;52.60;;;;;;4956649;28;20035;-73
2021/06/24 12:42:24;;;;;;;28.23;6.10;;;34.00;52.50;;;;;;4957006;28;20134;-69
2021/06/24 12:44:50;;;;;;;38.83;7.63;;;33.80;52.50;;;;;;4956612;28;20094;-73
2021/06/24 12:47:40;;;;;;;35.00;6.70;;;33.70;52.80;;;;;;4956368;28;20054;-73
2021/06/24 12:50:35;;;;;;;32.95;6.90;;;33.70;52.80;;;;;;4955295;29;20369;-71
2021/06/24 12:53:13;;;;;;;35.42;7.25;;;33.80;52.10;;;;;;4955884;28;20063;-72
2021/06/24 12:55:40;;;;;;;25.58;6.70;;;33.80;52.60;;;;;;4956930;28;20020;-70
2021/06/24 12:58:16;;;;;;;31.65;6.93;;;33.70;53.20;;;;;;4956340;28;20039;-70
2021/06/24 13:00:53;;;;;;;27.88;6.28;;;33.70;53.20;;;;;;4956586;28;20077;-73
2021/06/24 13:03:58;;;;;;;30.05;6.78;;;33.70;52.80;;;;;;4956218;28;20388;-70
2021/06/24 13:09:34;;;;;;;35.22;6.30;;;33.60;52.40;;;;;;4978254;28;20114;-80
2021/06/24 13:12:03;;;;;;;46.92;8.15;;;33.50;52.50;;;;;;4975590;28;20039;-83
2021/06/24 13:14:36;;;;;;;36.53;6.82;;;33.50;53.20;;;;;;4980597;28;20030;-83